| time (UTC) | temp C | wind direction | speed KPH | gust KPH | rain 1hr cm | rain 24hr cm | rain mn cm | humidity % | barometer mb |
| 20260504234501 | 23 | 201 | 4.8 | 17.7 | 0.00 | 0.00 | 0.00 | 50 | 1010.1 |
| 20260504234001 | 23 | 333 | 6.4 | 19.3 | 0.00 | 0.00 | 0.00 | 49 | 1010.1 |
| 20260504233500 | 23 | 168 | 8.0 | 19.3 | 0.00 | 0.00 | 0.00 | 49 | 1010.2 |
| 20260504231500 | 24 | 206 | 8.0 | 24.1 | 0.00 | 0.00 | 0.00 | 46 | 1010.1 |
| 20260504231001 | 24 | 249 | 6.4 | 30.6 | 0.00 | 0.00 | 0.00 | 46 | 1010.2 |
| 20260504230501 | 24 | 222 | 12.9 | 30.6 | 0.00 | 0.00 | 0.00 | 46 | 1010.2 |
| 20260504230003 | 24 | 264 | 8.0 | 20.9 | 0.00 | 0.00 | 0.00 | 47 | 1010.3 |
| 20260504225501 | 24 | 211 | 9.7 | 19.3 | 0.00 | 0.00 | 0.00 | 47 | 1010.3 |
| 20260504225002 | 24 | 262 | 9.7 | 25.7 | 0.00 | 0.00 | 0.00 | 47 | 1010.3 |
| 20260504224504 | 24 | 274 | 9.7 | 29.0 | 0.00 | 0.00 | 0.00 | 47 | 1010.3 |
| 20260504223502 | 25 | 184 | 9.7 | 25.7 | 0.00 | 0.00 | 0.00 | 47 | 1010.5 |
| 20260504222001 | 25 | 243 | 11.3 | 24.1 | 0.00 | 0.00 | 0.00 | 46 | 1010.4 |
| 20260504221501 | 25 | 287 | 9.7 | 27.4 | 0.00 | 0.00 | 0.00 | 45 | 1010.4 |
| 20260504221001 | 25 | 241 | 12.9 | 30.6 | 0.00 | 0.00 | 0.00 | 45 | 1010.5 |
| 20260504220502 | 25 | 194 | 17.7 | 30.6 | 0.00 | 0.00 | 0.00 | 44 | 1010.4 |
| 20260504220003 | 25 | 219 | 9.7 | 30.6 | 0.00 | 0.00 | 0.00 | 46 | 1010.3 |
| 20260504215502 | 25 | 223 | 11.3 | 30.6 | 0.00 | 0.00 | 0.00 | 45 | 1010.3 |
| 20260504215001 | 25 | 270 | 11.3 | 25.7 | 0.00 | 0.00 | 0.00 | 46 | 1010.5 |
| 20260504214502 | 25 | 241 | 16.1 | 25.7 | 0.00 | 0.00 | 0.00 | 46 | 1010.4 |
| 20260504212501 | 25 | 251 | 16.1 | 35.4 | 0.00 | 0.00 | 0.00 | 45 | 1010.5 |
| 20260504212001 | 25 | 255 | 17.7 | 35.4 | 0.00 | 0.00 | 0.00 | 45 | 1010.7 |
| 20260504211501 | 25 | 230 | 12.9 | 29.0 | 0.00 | 0.00 | 0.00 | 46 | 1010.6 |
| 20260504211001 | 25 | 181 | 11.3 | 29.0 | 0.00 | 0.00 | 0.00 | 46 | 1010.8 |
| 20260504210501 | 25 | 211 | 9.7 | 32.2 | 0.00 | 0.00 | 0.00 | 46 | 1010.7 |
| 20260504210002 | 25 | 233 | 12.9 | 33.8 | 0.00 | 0.00 | 0.00 | 45 | 1010.7 |
| 20260504205501 | 25 | 240 | 19.3 | 33.8 | 0.00 | 0.00 | 0.00 | 45 | 1010.7 |
| 20260504205002 | 25 | 275 | 14.5 | 35.4 | 0.00 | 0.00 | 0.00 | 44 | 1011.0 |
| 20260504204501 | 25 | 248 | 12.9 | 32.2 | 0.00 | 0.00 | 0.00 | 46 | 1010.9 |
| 20260504204001 | 26 | 223 | 6.4 | 32.2 | 0.00 | 0.00 | 0.00 | 46 | 1011.0 |
| 20260504203504 | 26 | 207 | 6.4 | 33.8 | 0.00 | 0.00 | 0.00 | 46 | 1011.0 |
| 20260504203002 | 26 | 165 | 12.9 | 29.0 | 0.00 | 0.00 | 0.00 | 44 | 1011.3 |
| 20260504202502 | 25 | 163 | 12.9 | 25.7 | 0.00 | 0.00 | 0.00 | 44 | 1011.3 |
| 20260504202001 | 25 | 219 | 14.5 | 25.7 | 0.00 | 0.00 | 0.00 | 44 | 1011.5 |
| 20260504201501 | 26 | 275 | 11.3 | 29.0 | 0.00 | 0.00 | 0.00 | 43 | 1011.4 |
| 20260504201003 | 25 | 194 | 11.3 | 40.2 | 0.00 | 0.00 | 0.00 | 44 | 1011.6 |
| 20260504200502 | 25 | 248 | 17.7 | 40.2 | 0.00 | 0.00 | 0.00 | 44 | 1011.7 |
| 20260504200002 | 25 | 250 | 6.4 | 27.4 | 0.00 | 0.00 | 0.00 | 47 | 1011.7 |
| 20260504195500 | 26 | 240 | 16.1 | 27.4 | 0.00 | 0.00 | 0.00 | 44 | 1012.0 |
| 20260504195000 | 25 | 169 | 12.9 | 22.5 | 0.00 | 0.00 | 0.00 | 44 | 1012.0 |
| 20260504194501 | 25 | 188 | 11.3 | 20.9 | 0.00 | 0.00 | 0.00 | 46 | 1012.0 |
| 20260504194027 | 25 | 219 | 6.4 | 32.2 | 0.00 | 0.00 | 0.00 | 47 | 1012.2 |
| 20260504193607 | 26 | 270 | 12.9 | 33.8 | 0.00 | 0.00 | 0.00 | 46 | 1012.7 |
| 20260504193018 | 26 | 248 | 14.5 | 30.6 | 0.00 | 0.00 | 0.00 | 45 | 1012.4 |
| 20260504192518 | 26 | 225 | 16.1 | 32.2 | 0.00 | 0.00 | 0.00 | 45 | 1012.5 |
| 20260504192038 | 26 | 293 | 11.3 | 25.7 | 0.00 | 0.00 | 0.00 | 46 | 1012.4 |
| 20260504191518 | 26 | 225 | 16.1 | 32.2 | 0.00 | 0.00 | 0.00 | 46 | 1012.7 |
| 20260504191018 | 26 | 270 | 11.3 | 29.0 | 0.00 | 0.00 | 0.00 | 48 | 1012.6 |
| 20260504190518 | 26 | 293 | 8.0 | 22.5 | 0.00 | 0.00 | 0.00 | 45 | 1012.7 |
| 20260504190018 | 26 | 270 | 9.7 | 20.9 | 0.00 | 0.00 | 0.00 | 48 | 1012.7 |
| 20260504185522 | 26 | 158 | 8.0 | 22.5 | 0.00 | 0.00 | 0.00 | 45 | 1012.7 |
| 20260504185018 | 25 | 225 | 14.5 | 25.7 | 0.00 | 0.00 | 0.00 | 46 | 1013.0 |
| 20260504184518 | 25 | 270 | 8.0 | 14.5 | 0.00 | 0.00 | 0.00 | 47 | 1012.7 |
| 20260504184018 | 26 | 270 | 12.9 | 27.4 | 0.00 | 0.00 | 0.00 | 48 | 1012.8 |
| 20260504183540 | 25 | 180 | 12.9 | 25.7 | 0.00 | 0.00 | 0.00 | 48 | 1013.0 |
| 20260504183018 | 26 | 248 | 11.3 | 24.1 | 0.00 | 0.00 | 0.00 | 47 | 1013.1 |
| 20260504182518 | 25 | 270 | 11.3 | 22.5 | 0.00 | 0.00 | 0.00 | 49 | 1012.9 |
| 20260504182018 | 25 | 248 | 9.7 | 19.3 | 0.00 | 0.00 | 0.00 | 52 | 1013.1 |
| 20260504181518 | 25 | 225 | 8.0 | 17.7 | 0.00 | 0.00 | 0.00 | 52 | 1013.2 |
| 20260504181019 | 25 | 225 | 8.0 | 17.7 | 0.00 | 0.00 | 0.00 | 51 | 1013.3 |
| 20260504180518 | 25 | 293 | 9.7 | 24.1 | 0.00 | 0.00 | 0.00 | 54 | 1013.3 |
| 20260504180018 | 25 | 225 | 11.3 | 17.7 | 0.00 | 0.00 | 0.00 | 52 | 1013.4 |
| 20260504175517 | 25 | 293 | 9.7 | 22.5 | 0.00 | 0.00 | 0.00 | 50 | 1013.4 |
| 20260504175018 | 25 | 225 | 12.9 | 22.5 | 0.00 | 0.00 | 0.00 | 51 | 1013.4 |
| 20260504174520 | 25 | 248 | 9.7 | 20.9 | 0.00 | 0.00 | 0.00 | 52 | 1013.4 |
| 20260504174020 | 25 | 203 | 9.7 | 27.4 | 0.00 | 0.00 | 0.00 | 51 | 1013.5 |
| 20260504173540 | 25 | 225 | 9.7 | 22.5 | 0.00 | 0.00 | 0.00 | 50 | 1013.4 |
| 20260504173020 | 25 | 248 | 11.3 | 22.5 | 0.00 | 0.00 | 0.00 | 54 | 1013.7 |
| 20260504172519 | 25 | 270 | 9.7 | 22.5 | 0.00 | 0.00 | 0.00 | 53 | 1013.6 |
| 20260504172020 | 25 | 270 | 11.3 | 20.9 | 0.00 | 0.00 | 0.00 | 58 | 1013.8 |
| 20260504171520 | 24 | 248 | 12.9 | 27.4 | 0.00 | 0.00 | 0.00 | 53 | 1013.8 |
| 20260504171020 | 24 | 225 | 11.3 | 24.1 | 0.00 | 0.00 | 0.00 | 54 | 1013.9 |
| 20260504170520 | 25 | 293 | 11.3 | 27.4 | 0.00 | 0.00 | 0.00 | 56 | 1013.8 |
| 20260504151019 | 21 | 225 | 8.0 | 17.7 | 0.00 | 0.00 | 0.00 | 69 | 1014.9 |
| 20260504150519 | 21 | 248 | 6.4 | 12.9 | 0.00 | 0.00 | 0.00 | 68 | 1014.9 |
| 20260504141019 | 19 | 270 | 8.0 | 17.7 | 0.00 | 0.00 | 0.00 | 72 | 1015.1 |
| 20260504140519 | 19 | 248 | 9.7 | 20.9 | 0.00 | 0.00 | 0.00 | 72 | 1015.1 |
| 20260504130519 | 17 | 225 | 4.8 | 9.7 | 0.00 | 0.00 | 0.00 | 77 | 1014.9 |
| 20260504110519 | 15 | 180 | 3.2 | 11.3 | 0.00 | 0.00 | 0.00 | 80 | 1014.0 |
| 20260504100518 | 15 | 0.0 | 3.2 | 0.00 | 0.00 | 0.00 | 77 | 1014.4 | |
| 20260504081518 | 17 | 203 | 4.8 | 17.7 | 0.00 | 0.00 | 0.00 | 70 | 1014.7 |
| 20260504081018 | 17 | 180 | 4.8 | 17.7 | 0.00 | 0.00 | 0.00 | 70 | 1014.7 |
| 20260504080518 | 17 | 180 | 4.8 | 9.7 | 0.00 | 0.00 | 0.00 | 69 | 1014.7 |
| 20260504050520 | 14 | 158 | 4.8 | 8.0 | 0.00 | 0.00 | 0.00 | 75 | 1016.1 |
| 20260504045520 | 14 | 180 | 3.2 | 4.8 | 0.00 | 0.00 | 0.00 | 75 | 1016.1 |
| 20260504045020 | 15 | 180 | 1.6 | 6.4 | 0.00 | 0.00 | 0.00 | 73 | 1016.1 |
| 20260504044520 | 15 | 180 | 1.6 | 6.4 | 0.00 | 0.00 | 0.00 | 73 | 1016.1 |
| 20260504044020 | 15 | 180 | 1.6 | 6.4 | 0.00 | 0.00 | 0.00 | 73 | 1016.0 |
| 20260504043520 | 14 | 180 | 1.6 | 6.4 | 0.00 | 0.00 | 0.00 | 74 | 1015.9 |
| 20260504043040 | 15 | 180 | 1.6 | 4.8 | 0.00 | 0.00 | 0.00 | 73 | 1016.0 |
| 20260504042519 | 15 | 180 | 3.2 | 9.7 | 0.00 | 0.00 | 0.00 | 73 | 1016.0 |
| 20260504042101 | 14 | 180 | 3.2 | 9.7 | 0.00 | 0.00 | 0.00 | 74 | 1015.9 |
| 20260504041519 | 14 | 180 | 1.6 | 8.0 | 0.00 | 0.00 | 0.00 | 75 | 1015.8 |
| 20260504041040 | 14 | 180 | 1.6 | 6.4 | 0.00 | 0.00 | 0.00 | 74 | 1015.7 |
| 20260504040520 | 15 | 180 | 1.6 | 6.4 | 0.00 | 0.00 | 0.00 | 74 | 1015.8 |
| 20260504040120 | 15 | 180 | 3.2 | 8.0 | 0.00 | 0.00 | 0.00 | 74 | 1015.9 |
| 20260504035519 | 15 | 158 | 1.6 | 9.7 | 0.00 | 0.00 | 0.00 | 74 | 1015.9 |
| 20260504035020 | 14 | 203 | 1.6 | 8.0 | 0.00 | 0.00 | 0.00 | 75 | 1015.8 |
| 20260504034520 | 14 | 203 | 1.6 | 3.2 | 0.00 | 0.00 | 0.00 | 75 | 1016.0 |
| 20260504034020 | 15 | 203 | 1.6 | 4.8 | 0.00 | 0.00 | 0.00 | 74 | 1016.0 |
| 20260504033519 | 15 | 203 | 1.6 | 4.8 | 0.00 | 0.00 | 0.00 | 74 | 1016.1 |
| 20260504033019 | 15 | 203 | 1.6 | 4.8 | 0.00 | 0.00 | 0.00 | 73 | 1016.2 |
| 20260504032520 | 15 | 203 | 1.6 | 4.8 | 0.00 | 0.00 | 0.00 | 73 | 1016.1 |
| 20260504032020 | 15 | 203 | 1.6 | 6.4 | 0.00 | 0.00 | 0.00 | 73 | 1016.1 |
| 20260504031519 | 15 | 158 | 1.6 | 4.8 | 0.00 | 0.00 | 0.00 | 73 | 1016.1 |
| 20260504031019 | 15 | 135 | 1.6 | 4.8 | 0.00 | 0.00 | 0.00 | 72 | 1016.2 |
| 20260504030519 | 15 | 135 | 1.6 | 4.8 | 0.00 | 0.00 | 0.00 | 71 | 1016.2 |
| 20260504030039 | 15 | 135 | 1.6 | 8.0 | 0.00 | 0.00 | 0.00 | 71 | 1016.2 |
| 20260504025519 | 16 | 135 | 1.6 | 4.8 | 0.00 | 0.00 | 0.00 | 70 | 1016.2 |
| 20260504025019 | 16 | 135 | 1.6 | 6.4 | 0.00 | 0.00 | 0.00 | 70 | 1016.2 |
| 20260504024519 | 16 | 180 | 3.2 | 8.0 | 0.00 | 0.00 | 0.00 | 70 | 1016.3 |
| 20260504024019 | 16 | 180 | 1.6 | 4.8 | 0.00 | 0.00 | 0.00 | 70 | 1016.1 |
| 20260504023600 | 16 | 180 | 1.6 | 4.8 | 0.00 | 0.00 | 0.00 | 70 | 1016.0 |
| 20260504023019 | 16 | 180 | 1.6 | 6.4 | 0.00 | 0.00 | 0.00 | 70 | 1016.0 |
| 20260504022519 | 16 | 225 | 1.6 | 3.2 | 0.00 | 0.00 | 0.00 | 70 | 1016.0 |
| 20260504022019 | 16 | 225 | 1.6 | 4.8 | 0.00 | 0.00 | 0.00 | 72 | 1015.9 |
| 20260504021519 | 16 | 0.0 | 1.6 | 0.00 | 0.00 | 0.00 | 73 | 1015.9 | |
| 20260504021100 | 16 | 0.0 | 3.2 | 0.00 | 0.00 | 0.00 | 73 | 1015.9 | |
| 20260504020519 | 16 | 0.0 | 1.6 | 0.00 | 0.00 | 0.00 | 72 | 1015.9 | |
| 20260504020019 | 16 | 225 | 1.6 | 4.8 | 0.00 | 0.00 | 0.00 | 70 | 1015.9 |
| 20260504015519 | 16 | 225 | 1.6 | 3.2 | 0.00 | 0.00 | 0.00 | 69 | 1015.8 |
| 20260504015019 | 16 | 270 | 1.6 | 6.4 | 0.00 | 0.00 | 0.00 | 68 | 1015.8 |
| 20260504014519 | 16 | 270 | 1.6 | 4.8 | 0.00 | 0.00 | 0.00 | 70 | 1015.8 |
| 20260504014019 | 17 | 293 | 1.6 | 6.4 | 0.00 | 0.00 | 0.00 | 70 | 1015.8 |
| 20260504013519 | 16 | 0.0 | 1.6 | 0.00 | 0.00 | 0.00 | 69 | 1015.8 | |
| 20260504013019 | 17 | 0.0 | 3.2 | 0.00 | 0.00 | 0.00 | 66 | 1015.7 | |
| 20260504012519 | 17 | 293 | 1.6 | 3.2 | 0.00 | 0.00 | 0.00 | 66 | 1015.6 |
| 20260504012019 | 17 | 0.0 | 1.6 | 0.00 | 0.00 | 0.00 | 66 | 1015.7 | |
| 20260504011519 | 17 | 0.0 | 1.6 | 0.00 | 0.00 | 0.00 | 65 | 1015.7 | |
| 20260504011019 | 17 | 0.0 | 0.0 | 0.00 | 0.00 | 0.00 | 66 | 1015.6 | |
| 20260504010519 | 17 | 0.0 | 0.0 | 0.00 | 0.00 | 0.00 | 63 | 1015.6 | |
| 20260504010019 | 18 | 0.0 | 0.0 | 0.00 | 0.00 | 0.00 | 62 | 1015.5 | |
| 20260504005519 | 18 | 0.0 | 0.0 | 0.00 | 0.00 | 0.00 | 61 | 1015.5 | |
| 20260504005019 | 18 | 0.0 | 3.2 | 0.00 | 0.00 | 0.00 | 61 | 1015.4 | |
| 20260504004519 | 19 | 0.0 | 1.6 | 0.00 | 0.00 | 0.00 | 60 | 1015.4 | |
| 20260504004039 | 20 | 0.0 | 1.6 | 0.00 | 0.00 | 0.00 | 57 | 1015.6 | |
| 20260504003519 | 20 | 0.0 | 0.0 | 0.00 | 0.00 | 0.00 | 55 | 1015.5 | |
| 20260504003039 | 20 | 0.0 | 3.2 | 0.00 | 0.00 | 0.00 | 54 | 1015.6 | |
| 20260504002519 | 21 | 0.0 | 1.6 | 0.00 | 0.00 | 0.00 | 52 | 1015.5 | |
| 20260504002019 | 21 | 0.0 | 4.8 | 0.00 | 0.00 | 0.00 | 50 | 1015.5 | |
| 20260504001518 | 21 | 0.0 | 3.2 | 0.00 | 0.00 | 0.00 | 52 | 1015.6 | |
| 20260504001019 | 22 | 293 | 1.6 | 3.2 | 0.00 | 0.00 | 0.00 | 48 | 1015.6 |
| 20260504000519 | 22 | 0.0 | 3.2 | 0.00 | 0.00 | 0.00 | 48 | 1015.6 | |
| 20260504000019 | 22 | 293 | 1.6 | 4.8 | 0.00 | 0.00 | 0.00 | 46 | 1015.6 |
| 20260503235518 | 22 | 0.0 | 4.8 | 0.00 | 0.00 | 0.00 | 47 | 1015.6 |